SOCA Airport Information

Runway Information
Runway 08 Length 10486 ft width 148 ft
Elevation 18 ft Threshold 0 ft Heading 65
Runway 26 Length 10486 ft Width 148 ft
Elevation 25 ft Threshold 0 ft Heading 245
Airport Frequencies
Type APP Name APP Frequency 119.9 MHZ
Type ATIS Name ATIS Frequency 132.2 MHZ
Type TWR Name TWR Frequency 118.1 MHZ
Airport Navaids
Type VOR-DME Name Cayenne Frequency 115950 KHZ
Type NDB Name Cayenne Frequency 327 KHZ
Airport Weather Information & NOTAM
SOCA 031230Z AUTO VRB02KT 9999 SCT014 30/25 Q1012 TEMPO 3000 SHRA FEW012TCU